createdAt,value
2023-04-09T00:01:17.570Z,101805.94
2023-04-09T00:03:44.065Z,101809.06
2023-04-09T00:06:11.578Z,101806.69
2023-04-09T00:08:37.968Z,101803.47
2023-04-09T00:11:04.720Z,101809.13
2023-04-09T00:13:39.288Z,101807.41
2023-04-09T00:16:07.486Z,101802.13
2023-04-09T00:18:34.033Z,101802.28
2023-04-09T00:21:00.598Z,101806.06
2023-04-09T00:23:27.045Z,101798.88
2023-04-09T00:25:53.573Z,101798.03
2023-04-09T00:28:20.105Z,101799.91
2023-04-09T00:30:46.543Z,101801.97
2023-04-09T00:33:12.995Z,101805.78
2023-04-09T00:35:39.386Z,101807.66
2023-04-09T00:38:05.831Z,101801.31
2023-04-09T00:40:32.574Z,101801.31
2023-04-09T00:42:59.015Z,101798.72
2023-04-09T00:45:25.512Z,101798.56
2023-04-09T00:47:52.259Z,101805.09
2023-04-09T00:50:18.768Z,101802.34
2023-04-09T00:52:45.696Z,101793.22
2023-04-09T00:55:12.952Z,101799.59
2023-04-09T00:57:39.430Z,101793.06
2023-04-09T01:00:07.784Z,101805.78
2023-04-09T01:02:34.747Z,101801.97
2023-04-09T01:05:01.511Z,101792.53
2023-04-09T01:07:54.238Z,101789.78
2023-04-09T01:10:46.249Z,101789.94
2023-04-09T01:13:18.646Z,101778.09
2023-04-09T01:15:52.840Z,101779.81
2023-04-09T01:18:27.026Z,101791.16
2023-04-09T01:21:06.820Z,101787.75
2023-04-09T01:23:56.910Z,101792.75
2023-04-09T01:26:38.078Z,101787.63
2023-04-09T01:29:06.249Z,101785.06
2023-04-09T01:31:37.350Z,101789.50
2023-04-09T01:34:06.294Z,101786.75
2023-04-09T01:36:34.039Z,101786.97
2023-04-09T01:39:02.279Z,101789.72
2023-04-09T01:41:32.415Z,101795.22
2023-04-09T01:44:01.846Z,101788.00
2023-04-09T01:46:29.428Z,101796.25
2023-04-09T01:48:56.869Z,101789.03
2023-04-09T01:51:23.336Z,101785.41
2023-04-09T01:53:49.857Z,101789.03
2023-04-09T01:56:16.285Z,101783.34
2023-04-09T01:58:42.717Z,101782.31
2023-04-09T02:01:27.415Z,101783.16
2023-04-09T02:03:58.075Z,101776.16
2023-04-09T02:06:31.024Z,101780.78
2023-04-09T02:09:00.315Z,101785.41
2023-04-09T02:11:29.590Z,101782.19
2023-04-09T02:13:56.679Z,101779.44
2023-04-09T02:16:23.542Z,101781.53
2023-04-09T02:18:54.949Z,101781.53
2023-04-09T02:21:23.239Z,101776.41
2023-04-09T02:23:50.522Z,101777.44
2023-04-09T02:26:16.989Z,101780.16
2023-04-09T02:28:43.362Z,101778.44
2023-04-09T02:31:09.806Z,101786.69
2023-04-09T02:33:36.291Z,101772.31
2023-04-09T02:36:02.765Z,101772.47
2023-04-09T02:38:29.213Z,101770.09
2023-04-09T02:40:55.575Z,101770.28
2023-04-09T02:43:21.936Z,101768.56
2023-04-09T02:45:48.371Z,101772.34
2023-04-09T02:48:14.861Z,101773.56
2023-04-09T02:50:41.274Z,101772.72
2023-04-09T02:53:07.728Z,101769.28
2023-04-09T02:55:34.127Z,101768.63
2023-04-09T02:58:00.601Z,101773.47
2023-04-09T03:00:27.025Z,101770.00
2023-04-09T03:02:53.583Z,101774.00
2023-04-09T03:05:21.012Z,101763.38
2023-04-09T03:07:47.448Z,101761.66
2023-04-09T03:10:13.850Z,101761.81
2023-04-09T03:12:40.259Z,101764.78
2023-04-09T03:15:07.204Z,101761.16
2023-04-09T03:17:33.895Z,101762.34
2023-04-09T03:20:00.317Z,101759.13
2023-04-09T03:22:26.730Z,101764.97
2023-04-09T03:24:53.210Z,101764.09
2023-04-09T03:27:19.645Z,101752.31
2023-04-09T03:29:46.180Z,101755.72
2023-04-09T03:32:12.589Z,101751.06
2023-04-09T03:34:39.028Z,101752.78
2023-04-09T03:37:05.538Z,101753.63
2023-04-09T03:39:31.976Z,101744.34
2023-04-09T03:41:58.923Z,101746.25
2023-04-09T03:44:25.620Z,101747.09
2023-04-09T03:46:52.101Z,101744.34
2023-04-09T03:49:18.581Z,101743.34
2023-04-09T03:51:45.101Z,101755.34
2023-04-09T03:54:11.539Z,101753.47
2023-04-09T03:56:37.935Z,101755.34
2023-04-09T03:59:04.279Z,101756.38
2023-04-09T04:01:30.853Z,101751.94
2023-04-09T04:03:57.382Z,101754.69
2023-04-09T04:06:23.842Z,101751.94
2023-04-09T04:08:50.706Z,101755.72
2023-04-09T04:11:17.350Z,101757.44
2023-04-09T04:13:43.724Z,101754.00
2023-04-09T04:16:10.921Z,101759.47
2023-04-09T04:18:37.739Z,101756.06
2023-04-09T04:21:04.401Z,101757.78
2023-04-09T04:23:30.806Z,101758.81
2023-04-09T04:25:58.098Z,101750.59
2023-04-09T04:28:24.475Z,101759.00
2023-04-09T04:30:50.866Z,101753.34
2023-04-09T04:33:17.274Z,101754.34
2023-04-09T04:35:43.735Z,101748.00
2023-04-09T04:38:10.443Z,101755.38
2023-04-09T04:40:36.969Z,101749.88
2023-04-09T04:43:03.346Z,101749.88
2023-04-09T04:45:29.783Z,101750.75
2023-04-09T04:47:56.292Z,101755.38
2023-04-09T04:50:22.722Z,101756.59
2023-04-09T04:52:49.167Z,101760.38
2023-04-09T04:55:15.653Z,101760.38
2023-04-09T04:57:42.057Z,101757.84
2023-04-09T05:00:09.060Z,101766.06
2023-04-09T05:02:35.634Z,101766.06
2023-04-09T05:05:02.245Z,101760.56
2023-04-09T05:07:28.966Z,101769.66
2023-04-09T05:09:55.333Z,101766.06
2023-04-09T05:12:21.785Z,101771.56
2023-04-09T05:14:48.206Z,101765.22
2023-04-09T05:17:15.547Z,101764.19
2023-04-09T05:19:41.988Z,101766.06
2023-04-09T05:22:08.455Z,101766.06
2023-04-09T05:24:34.839Z,101766.72
2023-04-09T05:27:01.304Z,101755.75
2023-04-09T05:29:27.736Z,101766.56
2023-04-09T05:31:54.145Z,101769.47
2023-04-09T05:34:20.569Z,101773.94
2023-04-09T05:36:46.989Z,101778.56
2023-04-09T05:39:13.450Z,101778.41
2023-04-09T05:41:40.677Z,101768.25
2023-04-09T05:44:07.099Z,101775.28
2023-04-09T05:46:33.639Z,101772.53
2023-04-09T05:49:00.202Z,101774.25
2023-04-09T05:51:26.634Z,101771.16
2023-04-09T05:53:53.273Z,101772.69
2023-04-09T05:56:22.640Z,101779.53
2023-04-09T05:58:49.208Z,101772.81
2023-04-09T06:01:15.793Z,101778.63
2023-04-09T06:03:42.408Z,101784.44
2023-04-09T06:06:08.904Z,101781.13
2023-04-09T06:08:35.326Z,101774.06
2023-04-09T06:11:01.977Z,101775.03
2023-04-09T06:13:28.353Z,101778.78
2023-04-09T06:15:55.021Z,101777.88
2023-04-09T06:18:22.036Z,101766.97
2023-04-09T06:20:48.447Z,101781.03
2023-04-09T06:23:14.852Z,101785.31
2023-04-09T06:25:41.340Z,101773.09
2023-04-09T06:28:07.700Z,101783.72
2023-04-09T06:30:35.769Z,101781.25
2023-04-09T06:33:02.261Z,101782.59
2023-04-09T06:35:28.723Z,101773.81
2023-04-09T06:37:55.089Z,101779.63
2023-04-09T06:40:23.348Z,101775.91
2023-04-09T06:42:49.996Z,101779.81
2023-04-09T06:45:16.513Z,101775.47
2023-04-09T06:47:43.025Z,101771.13
2023-04-09T06:50:09.596Z,101777.59
2023-04-09T06:52:36.337Z,101776.66
2023-04-09T06:55:02.772Z,101775.88
2023-04-09T06:57:29.173Z,101777.94
2023-04-09T06:59:55.721Z,101776.53
2023-04-09T07:02:22.448Z,101781.16
2023-04-09T07:04:49.135Z,101780.22
2023-04-09T07:07:15.710Z,101778.78
2023-04-09T07:09:42.787Z,101774.63
2023-04-09T07:12:09.171Z,101775.44
2023-04-09T07:14:35.702Z,101779.75
2023-04-09T07:17:02.116Z,101782.75
2023-04-09T07:19:28.490Z,101778.13
2023-04-09T07:21:55.366Z,101781.91
2023-04-09T07:24:21.827Z,101787.53
2023-04-09T07:26:49.108Z,101785.03
2023-04-09T07:29:16.898Z,101788.38
2023-04-09T07:31:44.768Z,101788.63
2023-04-09T07:34:11.363Z,101795.47
2023-04-09T07:36:37.876Z,101789.41
2023-04-09T07:39:04.314Z,101795.16
2023-04-09T07:41:31.585Z,101795.38
2023-04-09T07:43:58.044Z,101796.25
2023-04-09T07:46:24.626Z,101805.16
2023-04-09T07:48:51.454Z,101795.84
2023-04-09T07:51:18.257Z,101800.19
2023-04-09T07:53:44.677Z,101789.06
2023-04-09T07:56:11.273Z,101787.47
2023-04-09T07:58:40.537Z,101786.94
2023-04-09T08:01:06.946Z,101789.44
2023-04-09T08:03:33.701Z,101787.13
2023-04-09T08:06:00.210Z,101785.69
2023-04-09T08:08:26.646Z,101789.88
2023-04-09T08:10:53.560Z,101789.50
2023-04-09T08:13:20.010Z,101798.03
2023-04-09T08:15:46.481Z,101790.97
2023-04-09T08:18:12.999Z,101785.13
2023-04-09T08:20:44.887Z,101792.03
2023-04-09T08:23:12.095Z,101789.94
2023-04-09T08:25:38.541Z,101788.94
2023-04-09T08:28:05.497Z,101786.44
2023-04-09T08:30:34.150Z,101784.56
2023-04-09T08:33:01.699Z,101791.72
2023-04-09T08:35:30.690Z,101800.44
2023-04-09T08:37:57.508Z,101790.72
2023-04-09T08:40:24.399Z,101791.50
2023-04-09T08:42:58.732Z,101793.53
2023-04-09T08:45:25.182Z,101792.50
2023-04-09T08:47:52.103Z,101792.53
2023-04-09T08:50:19.269Z,101791.34
2023-04-09T08:52:48.256Z,101799.72
2023-04-09T08:55:14.938Z,101799.72
2023-04-09T08:57:42.005Z,101788.69
2023-04-09T09:00:09.260Z,101781.94
2023-04-09T09:02:36.271Z,101786.66
2023-04-09T09:05:02.876Z,101785.31
2023-04-09T09:07:29.755Z,101787.78
2023-04-09T09:09:58.770Z,101790.69
2023-04-09T09:12:42.062Z,101783.13
2023-04-09T09:15:28.167Z,101779.19
2023-04-09T09:17:59.460Z,101785.75
2023-04-09T09:20:27.013Z,101781.38
2023-04-09T09:22:55.802Z,101773.91
2023-04-09T09:25:26.120Z,101768.69
2023-04-09T09:27:54.029Z,101776.91
2023-04-09T09:30:25.904Z,101770.56
2023-04-09T09:33:05.903Z,101766.16
2023-04-09T09:35:47.566Z,101768.66
2023-04-09T09:38:15.882Z,101770.19
2023-04-09T09:40:42.314Z,101768.41
2023-04-09T09:43:08.740Z,101767.16
2023-04-09T09:45:37.234Z,101765.69
2023-04-09T09:48:05.464Z,101758.09
2023-04-09T09:50:34.558Z,101748.81
2023-04-09T09:53:04.876Z,101747.13
2023-04-09T09:55:32.834Z,101738.84
2023-04-09T09:58:08.342Z,101739.69
2023-04-09T10:00:37.377Z,101734.16
2023-04-09T10:03:14.258Z,101736.25
2023-04-09T10:05:41.493Z,101733.25
2023-04-09T10:08:08.124Z,101723.94
2023-04-09T10:10:35.940Z,101726.91
2023-04-09T10:13:03.376Z,101734.56
2023-04-09T10:15:31.060Z,101732.84
2023-04-09T10:17:58.000Z,101725.41
2023-04-09T10:20:32.457Z,101731.09
2023-04-09T10:23:06.208Z,101716.78
2023-04-09T10:25:32.799Z,101708.69
2023-04-09T10:28:02.725Z,101718.59
2023-04-09T10:30:33.681Z,101710.31
2023-04-09T10:33:11.428Z,101707.03
2023-04-09T10:35:38.056Z,101709.47
2023-04-09T10:38:08.330Z,101708.34
2023-04-09T10:40:34.946Z,101709.44
2023-04-09T10:43:03.022Z,101704.19
2023-04-09T10:45:40.936Z,101707.31
2023-04-09T10:48:12.968Z,101699.88
2023-04-09T10:50:40.201Z,101694.88
2023-04-09T10:53:06.630Z,101691.31
2023-04-09T10:55:38.450Z,101680.66
2023-04-09T10:58:06.601Z,101678.38
2023-04-09T11:00:42.323Z,101691.72
2023-04-09T11:03:08.766Z,101692.00
2023-04-09T11:05:39.826Z,101689.00
2023-04-09T11:08:12.011Z,101689.78
2023-04-09T11:10:40.930Z,101703.34
2023-04-09T11:13:11.755Z,101688.28
2023-04-09T11:15:38.918Z,101687.47
2023-04-09T11:18:07.052Z,101695.66
2023-04-09T11:20:34.477Z,101672.88
2023-04-09T11:23:01.088Z,101678.22
2023-04-09T11:25:29.766Z,101679.47
2023-04-09T11:27:56.263Z,101668.53
2023-04-09T11:30:22.809Z,101667.78
2023-04-09T11:32:50.096Z,101671.31
2023-04-09T11:35:18.912Z,101665.88
2023-04-09T11:37:46.567Z,101662.88
2023-04-09T11:40:17.747Z,101663.44
2023-04-09T11:42:45.543Z,101662.13
2023-04-09T11:45:12.531Z,101668.22
2023-04-09T11:47:41.688Z,101661.22
2023-04-09T11:50:09.560Z,101656.88
2023-04-09T11:52:36.664Z,101660.84
2023-04-09T11:55:04.508Z,101656.56
2023-04-09T11:57:51.893Z,101655.03
2023-04-09T12:00:19.794Z,101657.59
2023-04-09T12:02:50.607Z,101652.63
2023-04-09T12:05:25.291Z,101658.66
2023-04-09T12:10:27.432Z,101656.16
2023-04-09T12:12:53.818Z,101637.03
2023-04-09T12:15:25.477Z,101641.97
2023-04-09T12:17:54.481Z,101636.94
2023-04-09T12:20:31.199Z,101642.22
2023-04-09T12:23:00.226Z,101632.78
2023-04-09T12:25:27.689Z,101643.53
2023-04-09T12:27:56.038Z,101638.28
2023-04-09T12:30:23.642Z,101637.06
2023-04-09T12:32:50.808Z,101638.66
2023-04-09T12:35:17.559Z,101642.41
2023-04-09T12:37:44.641Z,101640.59
2023-04-09T12:40:13.817Z,101643.09
2023-04-09T12:42:44.711Z,101638.88
2023-04-09T12:45:13.220Z,101641.50
2023-04-09T12:47:39.952Z,101642.16
2023-04-09T12:50:07.966Z,101642.97
2023-04-09T12:52:34.794Z,101637.22
2023-04-09T12:55:01.837Z,101626.09
2023-04-09T12:57:28.878Z,101630.41
2023-04-09T12:59:55.442Z,101628.31
2023-04-09T13:02:22.289Z,101632.97
2023-04-09T13:04:49.247Z,101637.03
2023-04-09T13:07:17.386Z,101640.59
2023-04-09T13:09:45.280Z,101629.56
2023-04-09T13:12:12.587Z,101630.13
2023-04-09T13:14:40.074Z,101628.66
2023-04-09T13:17:06.600Z,101625.09
2023-04-09T13:19:33.312Z,101617.63
2023-04-09T13:21:59.719Z,101605.41
2023-04-09T13:24:26.131Z,101605.19
2023-04-09T13:26:52.566Z,101606.63
2023-04-09T13:29:19.008Z,101609.28
2023-04-09T13:31:45.661Z,101608.03
2023-04-09T13:34:12.128Z,101602.25
2023-04-09T13:36:38.508Z,101606.59
2023-04-09T13:39:05.038Z,101604.91
2023-04-09T13:41:33.032Z,101598.53
2023-04-09T13:44:01.386Z,101606.41
2023-04-09T13:46:28.157Z,101610.41
2023-04-09T13:48:55.292Z,101605.75
2023-04-09T13:51:22.845Z,101591.56
2023-04-09T13:53:50.733Z,101604.06
2023-04-09T13:56:17.194Z,101596.75
2023-04-09T13:58:43.868Z,101597.13
2023-04-09T14:01:11.583Z,101596.06
2023-04-09T14:03:40.147Z,101598.41
2023-04-09T14:06:08.517Z,101593.91
2023-04-09T14:08:35.862Z,101591.56
2023-04-09T14:11:02.719Z,101588.38
2023-04-09T14:13:29.538Z,101594.34
2023-04-09T14:15:57.416Z,101590.84
2023-04-09T14:18:25.087Z,101587.59
2023-04-09T14:20:51.621Z,101589.31
2023-04-09T14:23:18.054Z,101576.00
2023-04-09T14:25:44.720Z,101583.59
2023-04-09T14:28:11.239Z,101592.09
2023-04-09T14:30:37.673Z,101596.59
2023-04-09T14:33:04.220Z,101588.19
2023-04-09T14:35:30.888Z,101581.50
2023-04-09T14:37:57.478Z,101576.72
2023-04-09T14:40:24.040Z,101578.41
2023-04-09T14:42:50.508Z,101580.31
2023-04-09T14:45:16.921Z,101583.25
2023-04-09T14:47:43.339Z,101573.16
2023-04-09T14:50:12.654Z,101572.69
2023-04-09T14:52:39.295Z,101579.50
2023-04-09T14:55:09.091Z,101575.63
2023-04-09T14:57:35.541Z,101568.66
2023-04-09T15:00:02.274Z,101568.19
2023-04-09T15:02:28.921Z,101569.59
2023-04-09T15:04:55.586Z,101571.25
2023-04-09T15:07:23.259Z,101563.13
2023-04-09T15:09:51.464Z,101558.59
2023-04-09T15:12:18.540Z,101556.25
2023-04-09T15:14:44.956Z,101550.09
2023-04-09T15:17:11.555Z,101565.00
2023-04-09T15:19:37.939Z,101556.13
2023-04-09T15:22:04.353Z,101557.69
2023-04-09T15:24:30.955Z,101560.56
2023-04-09T15:26:57.573Z,101561.91
2023-04-09T15:29:24.093Z,101561.38
2023-04-09T15:31:52.881Z,101564.28
2023-04-09T15:34:19.419Z,101565.75
2023-04-09T15:36:46.282Z,101559.66
2023-04-09T15:39:12.761Z,101558.47
2023-04-09T15:41:39.456Z,101556.59
2023-04-09T15:44:05.934Z,101564.34
2023-04-09T15:46:32.499Z,101553.22
2023-04-09T15:48:58.938Z,101557.47
2023-04-09T15:51:26.732Z,101558.16
2023-04-09T15:53:53.326Z,101555.88
2023-04-09T15:56:20.303Z,101552.34
2023-04-09T15:58:46.729Z,101549.56
2023-04-09T16:01:13.376Z,101554.03
2023-04-09T16:03:41.180Z,101555.97
2023-04-09T16:06:09.791Z,101553.03
2023-04-09T16:08:37.256Z,101557.97
2023-04-09T16:11:04.847Z,101549.41
2023-04-09T16:13:31.270Z,101566.53
2023-04-09T16:15:57.708Z,101557.81
2023-04-09T16:18:27.107Z,101548.63
2023-04-09T16:20:54.442Z,101544.31
2023-04-09T16:23:21.856Z,101533.84
2023-04-09T16:25:48.383Z,101540.94
2023-04-09T16:28:19.386Z,101551.88
2023-04-09T16:30:45.870Z,101553.41
2023-04-09T16:33:12.540Z,101551.94
2023-04-09T16:35:39.732Z,101556.09
2023-04-09T16:38:06.971Z,101550.63
2023-04-09T16:40:33.686Z,101547.16
2023-04-09T16:43:03.634Z,101543.59
2023-04-09T16:45:30.265Z,101544.50
2023-04-09T16:47:56.720Z,101551.75
2023-04-09T16:50:23.462Z,101541.28
2023-04-09T16:52:49.851Z,101538.81
2023-04-09T16:55:16.596Z,101536.41
2023-04-09T16:57:43.228Z,101533.63
2023-04-09T17:00:10.445Z,101536.78
2023-04-09T17:02:37.690Z,101525.81
2023-04-09T17:05:04.315Z,101521.97
2023-04-09T17:07:30.738Z,101518.66
2023-04-09T17:09:57.205Z,101521.22
2023-04-09T17:12:24.544Z,101523.69
2023-04-09T17:14:51.574Z,101519.09
2023-04-09T17:17:18.498Z,101522.22
2023-04-09T17:19:45.120Z,101526.66
2023-04-09T17:22:13.344Z,101516.97
2023-04-09T17:24:39.997Z,101514.13
2023-04-09T17:27:07.161Z,101520.66
2023-04-09T17:29:34.306Z,101515.16
2023-04-09T17:32:00.752Z,101519.91
2023-04-09T17:34:27.459Z,101513.16
2023-04-09T17:36:57.306Z,101516.78
2023-04-09T17:39:29.248Z,101505.91
2023-04-09T17:41:56.479Z,101512.25
2023-04-09T17:44:24.867Z,101503.53
2023-04-09T17:46:51.886Z,101511.88
2023-04-09T17:49:18.512Z,101521.78
2023-04-09T17:51:44.930Z,101522.53
2023-04-09T17:54:11.680Z,101525.94
2023-04-09T17:56:39.070Z,101523.53
2023-04-09T17:59:06.652Z,101525.59
2023-04-09T18:01:33.259Z,101530.81
2023-04-09T18:04:01.092Z,101535.13
2023-04-09T18:06:28.179Z,101545.38
2023-04-09T18:08:54.664Z,101541.03
2023-04-09T18:11:21.148Z,101548.38
2023-04-09T18:13:48.356Z,101550.66
2023-04-09T18:16:15.099Z,101552.50
2023-04-09T18:18:41.535Z,101557.06
2023-04-09T18:21:08.055Z,101551.19
2023-04-09T18:23:34.817Z,101549.59
2023-04-09T18:26:01.658Z,101553.94
2023-04-09T18:28:28.172Z,101559.78
2023-04-09T18:30:54.871Z,101564.16
2023-04-09T18:33:21.724Z,101559.16
2023-04-09T18:35:48.244Z,101568.78
2023-04-09T18:38:14.754Z,101566.25
2023-04-09T18:40:44.512Z,101569.88
2023-04-09T18:43:12.382Z,101567.31
2023-04-09T18:45:41.994Z,101569.00
2023-04-09T18:48:08.887Z,101566.22
2023-04-09T18:50:36.026Z,101574.47
2023-04-09T18:53:03.637Z,101562.94
2023-04-09T18:55:30.727Z,101563.31
2023-04-09T18:57:57.487Z,101568.75
2023-04-09T19:00:24.106Z,101579.75
2023-04-09T19:02:50.946Z,101582.19
2023-04-09T19:05:17.755Z,101580.84
2023-04-09T19:07:44.463Z,101579.94
2023-04-09T19:10:10.932Z,101574.75
2023-04-09T19:12:37.741Z,101574.53
2023-04-09T19:15:04.839Z,101581.91
2023-04-09T19:17:32.166Z,101585.44
2023-04-09T19:19:58.586Z,101586.44
2023-04-09T19:22:25.037Z,101588.28
2023-04-09T19:24:51.466Z,101585.66
2023-04-09T19:27:18.642Z,101588.19
2023-04-09T19:29:46.595Z,101591.69
2023-04-09T19:32:13.347Z,101593.34
2023-04-09T19:34:39.787Z,101589.47
2023-04-09T19:37:06.262Z,101597.50
2023-04-09T19:39:32.714Z,101586.38
2023-04-09T19:41:59.163Z,101596.47
2023-04-09T19:44:25.734Z,101596.03
2023-04-09T19:46:52.165Z,101590.06
2023-04-09T19:49:18.568Z,101592.16
2023-04-09T19:51:44.985Z,101589.13
2023-04-09T19:54:11.588Z,101582.31
2023-04-09T19:56:38.279Z,101587.56
2023-04-09T19:59:04.831Z,101585.22
2023-04-09T20:01:31.403Z,101582.19
2023-04-09T20:03:58.016Z,101582.25
2023-04-09T20:06:24.640Z,101581.97
2023-04-09T20:08:51.592Z,101578.28
2023-04-09T20:11:19.147Z,101582.66
2023-04-09T20:13:47.461Z,101587.69
2023-04-09T20:16:15.067Z,101586.38
2023-04-09T20:18:41.490Z,101594.56
2023-04-09T20:21:08.618Z,101587.91
2023-04-09T20:23:35.026Z,101587.25
2023-04-09T20:26:02.611Z,101595.88
2023-04-09T20:28:29.583Z,101595.59
2023-04-09T20:30:56.560Z,101599.94
2023-04-09T20:33:22.999Z,101595.03
2023-04-09T20:35:50.334Z,101596.44
2023-04-09T20:38:20.475Z,101587.91
2023-04-09T20:40:47.120Z,101596.53
2023-04-09T20:43:13.716Z,101592.44
2023-04-09T20:45:40.152Z,101590.25
2023-04-09T20:48:06.758Z,101602.00
2023-04-09T20:50:33.248Z,101592.59
2023-04-09T20:52:59.676Z,101597.44
2023-04-09T20:55:26.218Z,101593.38
2023-04-09T20:57:55.438Z,101593.06
2023-04-09T21:00:22.599Z,101595.72
2023-04-09T21:02:49.236Z,101589.25
2023-04-09T21:05:22.598Z,101579.19
2023-04-09T21:07:51.845Z,101585.59
2023-04-09T21:10:18.329Z,101580.38
2023-04-09T21:12:44.778Z,101584.69
2023-04-09T21:15:11.423Z,101580.63
2023-04-09T21:17:37.952Z,101586.69
2023-04-09T21:20:04.805Z,101577.09
2023-04-09T21:22:31.955Z,101580.56
2023-04-09T21:24:58.460Z,101582.81
2023-04-09T21:27:24.927Z,101579.41
2023-04-09T21:29:51.367Z,101580.97
2023-04-09T21:32:17.960Z,101575.38
2023-04-09T21:34:44.527Z,101577.28
2023-04-09T21:37:11.077Z,101579.22
2023-04-09T21:39:38.350Z,101582.19
2023-04-09T21:42:05.884Z,101578.44
2023-04-09T21:44:32.304Z,101576.28
2023-04-09T21:46:58.739Z,101582.09
2023-04-09T21:49:25.167Z,101579.72
2023-04-09T21:51:52.731Z,101572.88
2023-04-09T21:54:19.116Z,101576.84
2023-04-09T21:56:46.325Z,101577.19
2023-04-09T21:59:12.754Z,101568.63
2023-04-09T22:01:39.269Z,101573.97
2023-04-09T22:04:05.865Z,101580.69
2023-04-09T22:06:32.453Z,101577.44
2023-04-09T22:08:59.140Z,101577.78
2023-04-09T22:11:27.548Z,101583.81
2023-04-09T22:13:57.947Z,101581.38
2023-04-09T22:16:25.488Z,101584.50
2023-04-09T22:18:53.982Z,101582.97
2023-04-09T22:21:20.725Z,101588.09
2023-04-09T22:23:47.189Z,101587.59
2023-04-09T22:26:13.730Z,101588.81
2023-04-09T22:28:40.260Z,101577.34
2023-04-09T22:31:07.133Z,101574.28
2023-04-09T22:33:33.592Z,101572.91
2023-04-09T22:36:00.154Z,101565.06
2023-04-09T22:38:26.815Z,101560.09
2023-04-09T22:40:53.444Z,101556.03
2023-04-09T22:43:19.942Z,101564.03
2023-04-09T22:45:54.135Z,101555.84
2023-04-09T22:48:21.853Z,101559.59
2023-04-09T22:50:49.514Z,101558.94
2023-04-09T22:53:19.056Z,101559.28
2023-04-09T22:55:54.373Z,101570.91
2023-04-09T22:58:21.101Z,101572.47
2023-04-09T23:00:48.208Z,101569.56
2023-04-09T23:03:15.122Z,101575.72
2023-04-09T23:05:41.878Z,101570.94
2023-04-09T23:08:08.555Z,101574.69
2023-04-09T23:10:35.855Z,101575.38
2023-04-09T23:13:02.321Z,101583.22
2023-04-09T23:15:28.906Z,101594.53
2023-04-09T23:17:55.653Z,101596.91
2023-04-09T23:20:22.274Z,101603.75
2023-04-09T23:22:49.025Z,101617.75
2023-04-09T23:25:16.274Z,101609.53
2023-04-09T23:27:42.872Z,101615.00
2023-04-09T23:30:10.230Z,101618.09
2023-04-09T23:32:36.959Z,101616.72
2023-04-09T23:35:04.096Z,101622.00
2023-04-09T23:37:30.995Z,101618.91
2023-04-09T23:39:57.411Z,101613.78
2023-04-09T23:42:23.878Z,101613.97
2023-04-09T23:44:50.470Z,101607.78
2023-04-09T23:47:17.368Z,101620.44
2023-04-09T23:49:43.897Z,101617.53
2023-04-09T23:52:10.516Z,101610.03
2023-04-09T23:54:36.924Z,101608.84
2023-04-09T23:57:03.484Z,101597.91
2023-04-09T23:59:33.783Z,101605.09
